Time;durP1;ratioP1;P1;durP2;ratioP2;P2;SDS_P1;SDS_P2;PMS_P1;PMS_P2;Temp;Humidity;BMP_temperature;BMP_pressure;BME280_temperature;BME280_humidity;BME280_pressure;Samples;Min_cycle;Max_cycle;Signal;HPM_P1;HPM_P2
2021/03/10 00:02:24;;;;;;;96.70;40.95;;;-3.30;64.40;;;;;;5052281;28;20044;-77
2021/03/10 00:04:50;;;;;;;91.10;42.00;;;-3.40;64.60;;;;;;5048292;28;20087;-77
2021/03/10 00:07:16;;;;;;;101.18;44.88;;;-3.40;64.70;;;;;;5041854;28;20426;-76
2021/03/10 00:09:41;;;;;;;100.18;45.22;;;-3.50;64.80;;;;;;5048751;28;20040;-77
2021/03/10 00:12:07;;;;;;;103.30;44.15;;;-3.60;65.00;;;;;;5044641;28;20025;-77
2021/03/10 00:14:33;;;;;;;120.75;50.58;;;-3.60;65.40;;;;;;5051079;28;20028;-76
2021/03/10 00:16:59;;;;;;;122.82;51.20;;;-3.70;65.50;;;;;;5046728;28;20486;-75
2021/03/10 00:19:25;;;;;;;111.20;49.72;;;-3.80;65.60;;;;;;5052206;28;20476;-77
2021/03/10 00:21:51;;;;;;;114.47;47.03;;;-3.80;66.00;;;;;;5051919;28;20017;-76
2021/03/10 00:24:17;;;;;;;104.45;45.65;;;-3.90;66.10;;;;;;5048715;28;20033;-76
2021/03/10 00:26:44;;;;;;;101.88;45.90;;;-3.80;66.40;;;;;;5051997;28;20029;-77
2021/03/10 00:29:10;;;;;;;107.10;45.63;;;-3.90;66.30;;;;;;5051954;28;20051;-76
2021/03/10 00:31:36;;;;;;;100.65;44.90;;;-3.90;66.70;;;;;;5053297;28;20072;-76
2021/03/10 00:34:02;;;;;;;101.40;46.22;;;-3.90;66.90;;;;;;5048882;28;20048;-77
2021/03/10 00:36:27;;;;;;;102.18;46.28;;;-3.90;66.90;;;;;;5044702;28;20033;-76
2021/03/10 00:38:53;;;;;;;112.72;48.50;;;-3.90;66.90;;;;;;5052548;28;20444;-76
2021/03/10 00:41:19;;;;;;;105.93;45.97;;;-4.00;67.10;;;;;;5045198;28;20051;-77
2021/03/10 00:43:44;;;;;;;114.82;45.72;;;-3.90;67.30;;;;;;5052937;28;20064;-76
2021/03/10 00:46:10;;;;;;;103.88;47.95;;;-4.00;67.30;;;;;;5053202;28;20021;-76
2021/03/10 00:48:36;;;;;;;116.70;49.40;;;-4.00;67.40;;;;;;5053337;28;20021;-76
2021/03/10 00:51:01;;;;;;;107.35;45.58;;;-3.90;67.50;;;;;;5046183;28;20026;-76
2021/03/10 00:53:27;;;;;;;108.28;48.00;;;-4.00;67.50;;;;;;5043826;28;20025;-76
2021/03/10 00:55:53;;;;;;;99.80;44.90;;;-4.00;67.50;;;;;;5052306;28;20364;-76
2021/03/10 00:58:19;;;;;;;108.43;46.38;;;-4.00;67.70;;;;;;5050392;28;20356;-76
2021/03/10 01:00:44;;;;;;;106.88;47.15;;;-4.00;67.70;;;;;;5044924;28;20090;-77
2021/03/10 01:03:10;;;;;;;113.93;49.90;;;-4.00;67.80;;;;;;5051313;28;20142;-76
2021/03/10 01:05:36;;;;;;;119.07;50.72;;;-4.00;67.90;;;;;;5051828;28;20025;-76
2021/03/10 01:08:02;;;;;;;115.95;48.45;;;-4.10;67.90;;;;;;5052663;28;20067;-76
2021/03/10 01:10:27;;;;;;;111.22;49.55;;;-4.10;68.00;;;;;;5050324;28;20026;-76
2021/03/10 01:12:53;;;;;;;127.70;49.03;;;-4.10;68.10;;;;;;5050811;28;20547;-77
2021/03/10 01:15:21;;;;;;;136.40;54.15;;;-4.20;68.10;;;;;;5051292;28;20459;-76
2021/03/10 01:17:47;;;;;;;115.88;50.28;;;-4.30;68.10;;;;;;5053009;28;20025;-76
2021/03/10 01:20:15;;;;;;;123.00;51.65;;;-4.30;68.30;;;;;;5051309;28;20017;-76
2021/03/10 01:22:41;;;;;;;119.43;51.75;;;-4.30;68.60;;;;;;5040892;28;20056;-76
2021/03/10 01:25:08;;;;;;;122.88;53.75;;;-4.40;68.60;;;;;;5048259;28;20021;-76
2021/03/10 01:27:34;;;;;;;119.65;53.90;;;-4.50;68.80;;;;;;5051570;28;20387;-76
2021/03/10 01:30:00;;;;;;;133.55;53.13;;;-4.50;69.00;;;;;;5050976;28;20024;-77
2021/03/10 01:32:25;;;;;;;128.95;54.75;;;-4.60;69.20;;;;;;5051014;28;20034;-76
2021/03/10 01:34:51;;;;;;;132.65;57.17;;;-4.60;69.50;;;;;;5044626;28;20028;-76
2021/03/10 01:37:17;;;;;;;145.32;62.70;;;-4.60;69.70;;;;;;5051922;28;20024;-76
2021/03/10 01:39:42;;;;;;;145.15;58.92;;;-4.60;70.00;;;;;;5051495;28;20021;-76
2021/03/10 01:42:08;;;;;;;155.85;66.13;;;-4.60;70.40;;;;;;5039660;28;20040;-76
2021/03/10 01:44:34;;;;;;;161.35;69.60;;;-4.50;70.50;;;;;;5051252;28;20040;-76
2021/03/10 01:47:01;;;;;;;141.57;63.22;;;-4.50;70.50;;;;;;5051175;28;20115;-77
2021/03/10 01:49:28;;;;;;;142.52;63.03;;;-4.60;70.40;;;;;;5053302;28;20036;-76
2021/03/10 01:51:54;;;;;;;166.70;74.50;;;-4.60;70.50;;;;;;5043035;28;20068;-76
2021/03/10 01:54:19;;;;;;;171.57;75.93;;;-4.70;70.50;;;;;;5054686;28;20057;-76
2021/03/10 01:56:45;;;;;;;179.27;79.30;;;-4.70;70.80;;;;;;5056414;28;20102;-76
2021/03/10 01:59:11;;;;;;;204.27;87.45;;;-4.80;71.00;;;;;;5055771;28;20028;-76
2021/03/10 02:01:37;;;;;;;198.10;85.78;;;-4.80;71.30;;;;;;5051857;28;20123;-76
2021/03/10 02:04:08;;;;;;;154.32;66.85;;;-4.80;71.50;;;;;;5049004;28;20141;-76
2021/03/10 02:06:55;;;;;;;130.23;56.65;;;-4.80;71.70;;;;;;5056380;28;20079;-76
2021/03/10 02:09:45;;;;;;;112.53;48.47;;;-4.80;71.80;;;;;;5054453;28;20033;-76
2021/03/10 02:12:24;;;;;;;104.90;47.70;;;-4.80;71.90;;;;;;5047730;28;20025;-76
2021/03/10 02:15:05;;;;;;;119.40;53.17;;;-4.70;72.20;;;;;;5055743;28;20029;-76
2021/03/10 02:17:37;;;;;;;154.93;64.30;;;-4.50;72.20;;;;;;5056095;28;20039;-76
2021/03/10 02:20:07;;;;;;;107.45;49.15;;;-4.50;72.10;;;;;;5054406;28;20025;-76
2021/03/10 02:23:00;;;;;;;93.82;45.25;;;-4.40;72.10;;;;;;5043368;28;20025;-77
2021/03/10 02:26:03;;;;;;;110.10;50.20;;;-4.40;72.20;;;;;;5050025;28;20360;-76
2021/03/10 02:28:31;;;;;;;76.00;35.72;;;-4.30;72.20;;;;;;5044991;28;20029;-76
2021/03/10 02:31:00;;;;;;;88.45;41.38;;;-4.30;71.90;;;;;;5053983;28;20025;-76
2021/03/10 02:33:29;;;;;;;99.55;44.08;;;-4.40;71.70;;;;;;5055343;28;20033;-76
2021/03/10 02:36:01;;;;;;;91.70;43.63;;;-4.40;71.70;;;;;;5041510;28;20413;-76
2021/03/10 02:38:28;;;;;;;102.75;47.20;;;-4.50;72.00;;;;;;5054430;28;20158;-76
2021/03/10 02:40:56;;;;;;;95.95;41.55;;;-4.60;72.10;;;;;;5053884;28;20033;-76
2021/03/10 02:43:23;;;;;;;96.50;45.05;;;-4.60;72.20;;;;;;5054597;28;20068;-76
2021/03/10 02:45:53;;;;;;;108.20;48.67;;;-4.60;72.60;;;;;;5045092;28;20040;-76
2021/03/10 02:48:21;;;;;;;122.15;53.13;;;-4.70;72.60;;;;;;5054526;28;20075;-89
2021/03/10 02:50:48;;;;;;;108.35;48.20;;;-4.70;72.70;;;;;;5054917;28;20078;-91
2021/03/10 02:53:15;;;;;;;105.38;45.40;;;-4.70;72.80;;;;;;5054905;28;20057;-85
2021/03/10 02:55:41;;;;;;;103.68;50.00;;;-4.70;72.80;;;;;;5053306;28;20104;-84
2021/03/10 02:58:10;;;;;;;105.72;46.83;;;-4.80;73.00;;;;;;5053871;28;20452;-84
2021/03/10 03:00:37;;;;;;;90.18;42.47;;;-4.80;73.20;;;;;;5055099;28;20029;-85
2021/03/10 03:03:03;;;;;;;85.93;38.80;;;-4.80;73.40;;;;;;5043108;28;20136;-84
2021/03/10 03:05:31;;;;;;;87.43;38.53;;;-4.80;73.50;;;;;;5051498;28;20029;-85
2021/03/10 03:07:57;;;;;;;83.90;39.25;;;-4.80;73.60;;;;;;5052194;28;20033;-84
2021/03/10 03:10:25;;;;;;;85.05;37.00;;;-4.70;73.90;;;;;;5053460;28;20475;-83
2021/03/10 03:12:52;;;;;;;101.72;44.60;;;-4.70;73.70;;;;;;5053641;28;20052;-83
2021/03/10 03:15:21;;;;;;;102.72;47.78;;;-4.70;73.80;;;;;;5052945;28;20905;-84
2021/03/10 03:17:47;;;;;;;106.43;48.50;;;-4.80;73.60;;;;;;5050295;28;20025;-84
2021/03/10 03:20:15;;;;;;;102.97;46.90;;;-4.90;73.70;;;;;;5049234;28;20112;-84
2021/03/10 03:22:44;;;;;;;98.65;43.97;;;-4.90;74.00;;;;;;5055074;28;20037;-84
2021/03/10 03:25:16;;;;;;;125.38;53.80;;;-4.90;74.20;;;;;;5053149;28;20387;-84
2021/03/10 03:27:46;;;;;;;126.13;54.03;;;-5.00;74.20;;;;;;5040542;28;20035;-84
2021/03/10 03:30:14;;;;;;;130.70;55.38;;;-5.00;74.30;;;;;;5054488;28;20094;-83
2021/03/10 03:32:41;;;;;;;135.85;60.03;;;-5.10;74.50;;;;;;5054272;28;20037;-84
2021/03/10 03:35:08;;;;;;;131.52;58.05;;;-5.20;74.70;;;;;;5053226;28;20025;-85
2021/03/10 03:37:34;;;;;;;146.50;61.35;;;-5.20;75.00;;;;;;5051395;28;20031;-84
2021/03/10 03:40:00;;;;;;;147.38;63.38;;;-5.20;75.10;;;;;;5046937;28;20032;-84
2021/03/10 03:42:26;;;;;;;164.95;67.10;;;-5.20;75.30;;;;;;5052944;28;20021;-84
2021/03/10 03:44:52;;;;;;;141.30;59.75;;;-5.20;75.40;;;;;;5054530;28;20379;-85
2021/03/10 03:47:19;;;;;;;104.68;48.20;;;-5.20;75.50;;;;;;5055193;28;20373;-84
2021/03/10 03:49:46;;;;;;;110.97;49.28;;;-5.20;75.40;;;;;;5055255;28;20009;-85
2021/03/10 03:52:16;;;;;;;109.00;50.38;;;-5.30;75.30;;;;;;5058693;28;20032;-84
2021/03/10 03:54:41;;;;;;;112.28;47.72;;;-5.30;75.30;;;;;;5052335;28;20055;-83
2021/03/10 03:57:08;;;;;;;103.65;48.95;;;-5.30;75.30;;;;;;5052292;28;20053;-84
2021/03/10 03:59:34;;;;;;;107.32;48.30;;;-5.30;75.20;;;;;;5051829;28;20036;-85
2021/03/10 04:02:00;;;;;;;125.70;55.05;;;-5.40;75.20;;;;;;5054186;28;20108;-85
2021/03/10 04:04:26;;;;;;;101.45;47.97;;;-5.40;75.30;;;;;;5045269;28;20141;-84
2021/03/10 04:06:51;;;;;;;112.82;51.88;;;-5.50;75.30;;;;;;5053768;28;20021;-85
2021/03/10 04:09:17;;;;;;;96.93;43.03;;;-5.40;75.60;;;;;;5053536;28;20460;-84
2021/03/10 04:11:44;;;;;;;98.20;46.10;;;-5.40;75.70;;;;;;5046104;28;20032;-84
2021/03/10 04:14:11;;;;;;;94.18;42.97;;;-5.40;75.80;;;;;;5052006;28;20020;-85
2021/03/10 04:16:37;;;;;;;86.35;38.80;;;-5.30;76.00;;;;;;5048604;28;20029;-84
2021/03/10 04:19:04;;;;;;;90.10;43.42;;;-5.20;76.20;;;;;;5052237;28;20107;-83
2021/03/10 04:21:30;;;;;;;95.25;43.00;;;-5.10;76.10;;;;;;5052620;28;20028;-85
2021/03/10 04:23:57;;;;;;;98.05;46.38;;;-5.10;75.80;;;;;;5051975;28;20033;-85
2021/03/10 04:26:22;;;;;;;91.10;45.78;;;-5.10;75.90;;;;;;5048520;28;20033;-85
2021/03/10 04:28:48;;;;;;;108.38;51.58;;;-5.00;76.50;;;;;;5053286;28;20459;-86
2021/03/10 04:31:14;;;;;;;81.65;37.80;;;-5.00;77.10;;;;;;5048917;28;20025;-85
2021/03/10 04:33:40;;;;;;;62.88;32.83;;;-4.70;78.20;;;;;;5052061;28;20040;-86
2021/03/10 04:36:06;;;;;;;60.35;31.85;;;-4.40;78.80;;;;;;5039068;28;20364;-86
2021/03/10 04:38:32;;;;;;;69.43;35.17;;;-4.00;79.20;;;;;;5043323;28;20494;-85
2021/03/10 04:40:57;;;;;;;65.38;30.67;;;-3.60;79.00;;;;;;5053714;28;20021;-85
2021/03/10 04:43:23;;;;;;;73.57;37.38;;;-3.30;78.70;;;;;;5054058;28;20094;-84
2021/03/10 04:45:49;;;;;;;76.13;38.92;;;-3.00;78.90;;;;;;5053779;28;20037;-86
2021/03/10 04:48:15;;;;;;;79.22;39.72;;;-2.70;78.60;;;;;;5052276;28;20017;-86
2021/03/10 04:50:40;;;;;;;88.53;42.00;;;-2.40;78.50;;;;;;5048994;28;20036;-86
2021/03/10 04:53:06;;;;;;;87.97;42.58;;;-2.10;78.40;;;;;;5037196;28;20032;-86
2021/03/10 04:55:32;;;;;;;96.97;47.28;;;-1.90;77.90;;;;;;5053406;28;20036;-86
2021/03/10 04:57:57;;;;;;;102.45;49.15;;;-1.60;77.60;;;;;;5052411;28;20021;-87
2021/03/10 05:00:23;;;;;;;110.07;51.20;;;-1.20;77.50;;;;;;5071293;28;20068;-87
2021/03/10 05:02:49;;;;;;;123.40;59.72;;;-0.70;77.30;;;;;;5052741;28;20073;-86
2021/03/10 05:05:14;;;;;;;119.50;57.22;;;-0.40;76.60;;;;;;5053028;28;20017;-86
2021/03/10 05:07:40;;;;;;;112.72;54.30;;;0.00;75.70;;;;;;5049736;28;20144;-86
2021/03/10 05:10:08;;;;;;;105.53;52.58;;;0.40;74.90;;;;;;5047272;28;20025;-84
2021/03/10 05:12:34;;;;;;;127.68;61.72;;;0.80;74.30;;;;;;5044446;28;20032;-85
2021/03/10 05:15:01;;;;;;;164.65;76.30;;;1.10;73.90;;;;;;5051407;28;20423;-84
2021/03/10 05:17:27;;;;;;;174.13;83.43;;;1.40;73.30;;;;;;5052976;28;20527;-84
2021/03/10 05:19:56;;;;;;;178.20;89.70;;;1.80;72.50;;;;;;5040601;28;20480;-84
2021/03/10 05:22:23;;;;;;;167.52;80.60;;;2.00;71.40;;;;;;5051615;28;20036;-84
2021/03/10 05:24:49;;;;;;;155.63;78.05;;;2.40;71.10;;;;;;5043481;28;20125;-86
2021/03/10 05:27:15;;;;;;;149.35;74.55;;;2.80;70.20;;;;;;5052733;28;20467;-85
2021/03/10 05:29:41;;;;;;;153.63;79.90;;;3.20;69.10;;;;;;5046213;28;20388;-86
2021/03/10 05:32:07;;;;;;;163.82;85.45;;;3.50;68.80;;;;;;5053546;28;20060;-76
2021/03/10 05:34:33;;;;;;;186.18;98.13;;;3.80;66.60;;;;;;5054466;28;20410;-77
2021/03/10 05:36:58;;;;;;;199.57;106.18;;;4.00;65.50;;;;;;5052671;28;20381;-76
2021/03/10 05:39:24;;;;;;;182.27;99.30;;;4.30;64.80;;;;;;5052096;28;20048;-78
2021/03/10 05:41:50;;;;;;;189.10;100.70;;;4.50;63.60;;;;;;5038198;28;20030;-76
2021/03/10 05:44:16;;;;;;;191.00;101.70;;;4.60;62.70;;;;;;5041480;28;20043;-75
2021/03/10 05:46:42;;;;;;;187.55;101.65;;;4.80;61.90;;;;;;5045568;28;20119;-76
2021/03/10 05:49:08;;;;;;;178.68;97.63;;;5.10;61.50;;;;;;5046120;28;20033;-76
2021/03/10 05:51:36;;;;;;;167.93;94.93;;;5.50;61.20;;;;;;5055557;28;20039;-76
2021/03/10 05:54:03;;;;;;;163.02;91.13;;;6.00;60.20;;;;;;5044164;28;20095;-77
2021/03/10 05:56:29;;;;;;;155.13;87.97;;;6.20;58.60;;;;;;5047869;28;20032;-76
2021/03/10 05:59:04;;;;;;;161.73;89.47;;;6.20;57.40;;;;;;5051323;28;20035;-76
2021/03/10 06:01:30;;;;;;;165.23;88.40;;;6.40;56.40;;;;;;5053941;28;20037;-76
2021/03/10 06:03:58;;;;;;;128.13;66.95;;;6.50;56.00;;;;;;5052713;28;20096;-76
2021/03/10 06:06:25;;;;;;;92.50;53.67;;;6.60;54.90;;;;;;5048014;28;20103;-76
2021/03/10 06:08:52;;;;;;;99.78;57.75;;;6.60;54.10;;;;;;5053457;28;20029;-76
2021/03/10 06:11:25;;;;;;;75.55;42.78;;;6.70;54.10;;;;;;5053454;28;20049;-76
2021/03/10 06:13:52;;;;;;;125.00;64.30;;;6.90;53.20;;;;;;5050577;28;20471;-77
2021/03/10 06:16:25;;;;;;;96.65;53.08;;;7.20;52.80;;;;;;5049079;28;20060;-76
2021/03/10 06:19:05;;;;;;;130.52;63.75;;;7.50;52.00;;;;;;5051486;28;20021;-76
2021/03/10 06:21:31;;;;;;;71.53;37.50;;;7.60;50.20;;;;;;5049269;28;20034;-76
2021/03/10 06:24:04;;;;;;;67.30;33.95;;;7.60;49.60;;;;;;5054212;28;20037;-75
2021/03/10 06:26:34;;;;;;;98.13;45.03;;;7.80;48.50;;;;;;5055594;28;20082;-75
2021/03/10 06:29:02;;;;;;;88.10;40.53;;;7.90;47.90;;;;;;5060538;28;20053;-77
2021/03/10 06:31:31;;;;;;;79.43;41.40;;;8.00;47.30;;;;;;5067530;28;20116;-90
2021/03/10 06:34:05;;;;;;;78.38;42.80;;;8.10;47.10;;;;;;5065444;28;20459;-90
2021/03/10 06:36:43;;;;;;;91.88;45.05;;;8.30;46.50;;;;;;5062579;28;20116;-89
2021/03/10 06:39:11;;;;;;;76.75;39.03;;;8.50;46.30;;;;;;5059971;28;20009;-90
2021/03/10 06:41:43;;;;;;;84.07;41.38;;;8.70;45.70;;;;;;5050267;28;20096;-74
2021/03/10 06:44:16;;;;;;;46.80;25.10;;;9.00;45.40;;;;;;5045165;28;20034;-75
2021/03/10 06:47:04;;;;;;;52.25;23.85;;;9.30;44.50;;;;;;5039015;28;20026;-76
2021/03/10 06:49:34;;;;;;;52.60;24.95;;;9.40;43.00;;;;;;5039467;28;20415;-76
2021/03/10 06:52:02;;;;;;;39.72;22.17;;;9.40;42.70;;;;;;5043622;28;20040;-75
2021/03/10 06:54:30;;;;;;;32.40;16.95;;;9.60;42.00;;;;;;5039290;28;20401;-76
2021/03/10 06:57:10;;;;;;;27.85;14.38;;;9.70;42.50;;;;;;5049284;28;20577;-73
2021/03/10 06:59:42;;;;;;;47.35;21.02;;;9.80;40.80;;;;;;5039238;28;20035;-76
2021/03/10 07:02:13;;;;;;;51.65;24.38;;;9.90;40.50;;;;;;5044266;28;20021;-76
2021/03/10 07:04:44;;;;;;;37.17;16.08;;;10.10;40.40;;;;;;5044401;28;20114;-76
2021/03/10 07:07:10;;;;;;;53.22;25.15;;;10.30;39.80;;;;;;5046409;28;20379;-76
2021/03/10 07:09:37;;;;;;;40.88;21.80;;;10.50;39.30;;;;;;5046134;28;20033;-76
2021/03/10 07:12:05;;;;;;;25.27;14.52;;;10.60;38.70;;;;;;5039790;28;20029;-80
2021/03/10 07:14:33;;;;;;;29.65;16.55;;;10.70;38.00;;;;;;5041124;28;20061;-76
2021/03/10 07:16:59;;;;;;;27.25;16.60;;;10.40;37.60;;;;;;5038325;28;20021;-76
2021/03/10 07:19:25;;;;;;;39.30;19.58;;;10.00;37.60;;;;;;5040416;28;20033;-75
2021/03/10 07:21:56;;;;;;;47.65;23.30;;;10.10;38.20;;;;;;5040125;28;20064;-77
2021/03/10 07:24:43;;;;;;;47.17;24.25;;;10.20;38.30;;;;;;5048814;28;20060;-77
2021/03/10 07:27:10;;;;;;;33.83;18.25;;;10.30;38.00;;;;;;5040024;28;20136;-75
2021/03/10 07:29:37;;;;;;;34.42;17.30;;;10.10;38.10;;;;;;5042352;28;20542;-72
2021/03/10 07:32:06;;;;;;;29.80;17.70;;;10.20;38.00;;;;;;5045472;28;20025;-81
2021/03/10 07:34:34;;;;;;;38.55;18.75;;;10.30;37.80;;;;;;5041333;28;20870;-74
2021/03/10 07:37:10;;;;;;;32.17;16.30;;;10.40;37.70;;;;;;5042643;28;20021;-73
2021/03/10 07:39:36;;;;;;;21.73;12.43;;;10.80;37.60;;;;;;5040467;28;20029;-80
2021/03/10 07:42:14;;;;;;;38.92;18.50;;;10.70;36.70;;;;;;5037261;28;20379;-75
2021/03/10 07:44:40;;;;;;;21.08;9.82;;;10.60;36.50;;;;;;5033796;28;20061;-74
2021/03/10 07:47:11;;;;;;;28.23;13.20;;;10.80;36.70;;;;;;5032375;28;20051;-74
2021/03/10 07:49:39;;;;;;;19.05;10.88;;;11.10;36.00;;;;;;5037584;28;20039;-75
2021/03/10 07:52:04;;;;;;;25.08;16.23;;;10.90;35.90;;;;;;5036727;28;20372;-75
2021/03/10 07:54:31;;;;;;;20.55;10.55;;;11.00;36.10;;;;;;5038039;28;20111;-75
2021/03/10 07:57:10;;;;;;;14.77;10.55;;;11.20;35.80;;;;;;5046485;28;20032;-75
2021/03/10 07:59:51;;;;;;;14.40;8.18;;;11.40;35.20;;;;;;5050606;28;20024;-75
2021/03/10 08:02:17;;;;;;;19.48;8.70;;;11.70;35.00;;;;;;5043310;28;20025;-75
2021/03/10 08:04:53;;;;;;;15.75;8.38;;;12.10;34.60;;;;;;5042569;28;20036;-75
2021/03/10 08:07:26;;;;;;;34.00;20.40;;;12.30;34.20;;;;;;5046263;28;20109;-75
2021/03/10 08:09:53;;;;;;;20.83;11.32;;;12.40;34.10;;;;;;5050693;28;20076;-76
2021/03/10 08:12:36;;;;;;;24.13;14.32;;;12.40;34.00;;;;;;5035366;28;20032;-75
2021/03/10 08:15:03;;;;;;;19.23;11.90;;;12.50;33.60;;;;;;5040745;28;20025;-76
2021/03/10 08:17:30;;;;;;;19.27;13.15;;;12.50;33.80;;;;;;5045244;28;20517;-75
2021/03/10 08:20:03;;;;;;;35.38;18.33;;;12.70;33.80;;;;;;5048945;28;20060;-75
2021/03/10 08:22:31;;;;;;;23.85;18.67;;;12.80;33.40;;;;;;5053255;28;20033;-75
2021/03/10 08:24:59;;;;;;;31.52;20.17;;;12.90;33.10;;;;;;5053505;28;20029;-74
2021/03/10 08:27:38;;;;;;;23.42;16.13;;;12.80;32.70;;;;;;5051773;28;20028;-75
2021/03/10 08:30:10;;;;;;;29.45;19.08;;;12.90;33.30;;;;;;5053917;28;20348;-75
2021/03/10 08:32:37;;;;;;;19.40;9.68;;;12.90;32.20;;;;;;5039169;28;20020;-75
2021/03/10 08:35:12;;;;;;;14.38;8.65;;;13.20;32.10;;;;;;5052127;28;20379;-75
2021/03/10 08:37:41;;;;;;;12.50;6.10;;;13.30;31.40;;;;;;5053187;28;20424;-75
2021/03/10 08:40:10;;;;;;;11.77;8.48;;;13.40;30.30;;;;;;5052982;28;20090;-75
2021/03/10 08:42:36;;;;;;;9.10;5.32;;;13.30;30.50;;;;;;5051457;28;20024;-75
2021/03/10 08:45:03;;;;;;;10.57;5.22;;;13.30;30.20;;;;;;5052747;28;20031;-75
2021/03/10 08:47:29;;;;;;;10.20;6.82;;;13.40;30.10;;;;;;5051479;28;20032;-75
2021/03/10 08:49:59;;;;;;;8.07;4.57;;;13.60;29.80;;;;;;5041125;28;20029;-75
2021/03/10 08:52:26;;;;;;;8.60;4.63;;;13.60;29.50;;;;;;5051817;28;20025;-75
2021/03/10 08:54:59;;;;;;;9.13;5.70;;;13.50;29.10;;;;;;5038745;28;20107;-75
2021/03/10 08:57:29;;;;;;;6.93;4.22;;;13.50;29.20;;;;;;5051441;28;20070;-76
2021/03/10 08:59:54;;;;;;;14.00;7.53;;;13.60;28.70;;;;;;5051385;28;20028;-76
2021/03/10 09:02:35;;;;;;;9.48;5.78;;;13.60;29.10;;;;;;5051358;28;20450;-75
2021/03/10 09:05:04;;;;;;;15.45;12.13;;;13.50;28.80;;;;;;5051162;28;20486;-76
2021/03/10 09:07:29;;;;;;;29.67;20.08;;;13.60;29.10;;;;;;5052945;28;20025;-75
2021/03/10 09:10:07;;;;;;;21.65;12.60;;;13.80;29.20;;;;;;5052769;28;20071;-76
2021/03/10 09:12:33;;;;;;;16.02;11.55;;;13.90;29.10;;;;;;5053219;28;20021;-75
2021/03/10 09:14:59;;;;;;;10.27;6.60;;;14.10;29.10;;;;;;5052481;28;20104;-76
2021/03/10 09:17:32;;;;;;;16.55;6.65;;;14.10;28.80;;;;;;5052818;28;20112;-74
2021/03/10 09:19:59;;;;;;;11.52;6.28;;;14.20;28.50;;;;;;5051636;28;20086;-75
2021/03/10 09:22:26;;;;;;;17.80;12.13;;;14.40;28.40;;;;;;5052622;28;20024;-74
2021/03/10 09:24:56;;;;;;;23.30;10.75;;;14.40;28.00;;;;;;5052664;28;20383;-74
2021/03/10 09:27:24;;;;;;;27.92;14.90;;;14.10;28.00;;;;;;5052387;28;20067;-75
2021/03/10 09:29:55;;;;;;;9.48;5.38;;;14.20;28.50;;;;;;5052975;28;20375;-74
2021/03/10 09:32:21;;;;;;;23.45;12.00;;;14.40;28.00;;;;;;5052389;28;20021;-75
2021/03/10 09:34:54;;;;;;;9.70;6.20;;;14.60;28.00;;;;;;5052849;28;20033;-75
2021/03/10 09:37:25;;;;;;;19.17;10.48;;;14.70;27.60;;;;;;5052397;28;20036;-74
2021/03/10 09:39:53;;;;;;;24.48;15.60;;;14.60;27.60;;;;;;5052702;28;20079;-75
2021/03/10 09:42:20;;;;;;;18.10;9.02;;;14.70;27.70;;;;;;5052449;28;20029;-75
2021/03/10 09:44:51;;;;;;;20.23;8.73;;;14.80;27.40;;;;;;5052490;28;20033;-74
2021/03/10 09:47:25;;;;;;;21.05;11.27;;;15.00;27.30;;;;;;5052396;28;20029;-74
2021/03/10 09:49:58;;;;;;;17.98;10.30;;;15.20;27.10;;;;;;5039506;28;20021;-75
2021/03/10 09:52:37;;;;;;;9.40;5.82;;;15.20;27.00;;;;;;5052501;28;20028;-75
2021/03/10 09:55:09;;;;;;;17.52;11.95;;;15.00;26.70;;;;;;5039728;28;20376;-75
2021/03/10 09:57:36;;;;;;;14.95;6.13;;;14.90;26.70;;;;;;5052588;28;20025;-76
2021/03/10 10:00:04;;;;;;;7.00;3.65;;;14.60;26.70;;;;;;5052523;28;20025;-75
2021/03/10 10:02:30;;;;;;;8.63;4.80;;;14.50;26.80;;;;;;5052294;28;20060;-75
2021/03/10 10:05:02;;;;;;;13.05;7.90;;;14.50;26.80;;;;;;5050926;28;20612;-75
2021/03/10 10:07:29;;;;;;;21.17;10.00;;;14.10;26.90;;;;;;5051270;28;20110;-75
2021/03/10 10:09:55;;;;;;;12.68;6.65;;;13.90;27.00;;;;;;5050930;28;20021;-75
2021/03/10 10:12:22;;;;;;;19.02;9.50;;;13.90;27.10;;;;;;5056066;28;20025;-74
2021/03/10 10:14:48;;;;;;;15.80;9.43;;;13.80;27.10;;;;;;5056255;28;20505;-75
2021/03/10 10:17:14;;;;;;;10.32;6.28;;;13.70;27.30;;;;;;5054527;28;20021;-75
2021/03/10 10:19:40;;;;;;;13.30;10.10;;;13.50;27.50;;;;;;5055756;28;20459;-75
2021/03/10 10:22:07;;;;;;;14.00;11.07;;;13.70;27.50;;;;;;5054258;28;20025;-75
2021/03/10 10:24:33;;;;;;;8.27;6.03;;;13.90;27.40;;;;;;5055826;28;20112;-74
2021/03/10 10:26:59;;;;;;;24.85;18.95;;;13.80;27.00;;;;;;5055106;28;20056;-75
2021/03/10 10:29:25;;;;;;;12.13;10.52;;;13.60;27.10;;;;;;5055568;28;20021;-74
2021/03/10 10:31:50;;;;;;;16.60;12.88;;;13.30;27.00;;;;;;5054770;28;20029;-74
2021/03/10 10:34:16;;;;;;;8.23;4.53;;;13.00;27.10;;;;;;5055291;28;20459;-75
2021/03/10 10:36:42;;;;;;;13.05;10.77;;;12.80;27.00;;;;;;5055420;28;20033;-76
2021/03/10 10:39:07;;;;;;;11.13;6.15;;;12.70;27.10;;;;;;5053984;28;20033;-75
2021/03/10 10:41:33;;;;;;;19.48;13.20;;;12.40;27.10;;;;;;5055869;28;20021;-74
2021/03/10 10:43:59;;;;;;;10.38;5.18;;;12.10;27.30;;;;;;5055014;28;20467;-75
2021/03/10 10:46:25;;;;;;;9.07;3.70;;;12.00;27.40;;;;;;5055424;28;20068;-75
2021/03/10 10:48:50;;;;;;;6.00;3.85;;;11.80;27.40;;;;;;5055310;28;20025;-75
2021/03/10 10:51:21;;;;;;;6.57;3.28;;;11.50;27.60;;;;;;5053369;28;20028;-75
2021/03/10 10:53:47;;;;;;;6.60;3.70;;;11.40;27.70;;;;;;5055442;28;20114;-75
2021/03/10 10:56:13;;;;;;;6.68;4.07;;;11.10;27.60;;;;;;5054973;28;20013;-75
2021/03/10 10:58:39;;;;;;;8.18;4.57;;;10.90;28.10;;;;;;5055527;28;20021;-75
2021/03/10 11:01:04;;;;;;;10.38;6.85;;;10.80;28.20;;;;;;5053462;28;20078;-75
2021/03/10 11:03:30;;;;;;;7.90;3.70;;;10.80;28.30;;;;;;5055014;28;20059;-75
2021/03/10 11:05:56;;;;;;;5.15;3.40;;;10.70;27.90;;;;;;5053548;28;20029;-75
2021/03/10 11:08:21;;;;;;;5.25;3.10;;;10.60;28.10;;;;;;5053598;28;20060;-74
2021/03/10 11:10:47;;;;;;;9.40;4.82;;;10.40;27.90;;;;;;5055162;28;20059;-75
2021/03/10 11:13:13;;;;;;;19.80;15.10;;;10.10;28.20;;;;;;5053323;28;20032;-75
2021/03/10 11:15:38;;;;;;;14.25;8.77;;;10.00;28.60;;;;;;5055152;28;20108;-75
2021/03/10 11:18:04;;;;;;;12.48;10.93;;;10.20;28.60;;;;;;5054877;28;20377;-75
2021/03/10 11:20:30;;;;;;;13.93;11.25;;;10.30;28.60;;;;;;5053119;28;20024;-75
2021/03/10 11:22:56;;;;;;;8.65;6.25;;;10.30;28.30;;;;;;5053453;28;20028;-75
2021/03/10 11:25:22;;;;;;;15.95;10.20;;;10.20;28.30;;;;;;5053029;28;20029;-75
2021/03/10 11:27:48;;;;;;;17.27;15.48;;;10.00;28.50;;;;;;5054647;28;20100;-75
2021/03/10 11:30:14;;;;;;;14.00;8.00;;;10.20;28.80;;;;;;5053293;28;20025;-74
2021/03/10 11:32:40;;;;;;;15.98;11.65;;;10.30;28.40;;;;;;5054556;28;20079;-74
2021/03/10 11:35:08;;;;;;;22.98;17.83;;;10.00;28.40;;;;;;5052725;28;20028;-74
2021/03/10 11:37:35;;;;;;;24.10;8.50;;;9.90;28.80;;;;;;5054351;28;20017;-74
2021/03/10 11:40:01;;;;;;;10.65;5.30;;;9.90;29.50;;;;;;5054427;28;20036;-74
2021/03/10 11:42:26;;;;;;;21.60;9.70;;;9.60;28.90;;;;;;5053991;28;20025;-74
2021/03/10 11:44:54;;;;;;;14.40;7.90;;;9.40;28.80;;;;;;5054027;28;20037;-74
2021/03/10 11:47:20;;;;;;;14.98;9.00;;;9.10;28.80;;;;;;5053783;28;20021;-74
2021/03/10 11:49:46;;;;;;;8.55;4.50;;;8.90;29.10;;;;;;5040119;28;20021;-74
2021/03/10 11:52:11;;;;;;;9.60;5.32;;;8.90;29.30;;;;;;5053055;28;20024;-74
2021/03/10 11:54:37;;;;;;;8.35;5.90;;;8.80;29.60;;;;;;5053759;28;20458;-74
2021/03/10 11:57:03;;;;;;;14.43;6.22;;;8.70;29.60;;;;;;5052487;28;20423;-74
2021/03/10 11:59:29;;;;;;;8.88;5.40;;;8.80;30.00;;;;;;5052550;28;20029;-74
2021/03/10 12:01:55;;;;;;;15.35;11.73;;;8.70;29.80;;;;;;5052631;28;20120;-73
2021/03/10 12:04:21;;;;;;;10.77;6.95;;;8.70;29.90;;;;;;5053918;28;20081;-73
2021/03/10 12:06:46;;;;;;;9.85;5.95;;;8.90;30.00;;;;;;5040121;28;20021;-73
2021/03/10 12:09:12;;;;;;;20.52;11.75;;;8.80;30.00;;;;;;5053820;28;20029;-73
2021/03/10 12:11:38;;;;;;;15.55;11.27;;;8.90;30.30;;;;;;5053574;28;20021;-73
2021/03/10 12:14:04;;;;;;;6.95;3.72;;;8.80;30.10;;;;;;5052468;28;20036;-73
2021/03/10 12:16:29;;;;;;;16.95;12.20;;;8.60;29.90;;;;;;5052155;28;20356;-73
2021/03/10 12:18:55;;;;;;;15.07;11.20;;;8.50;30.00;;;;;;5051969;28;20039;-73
2021/03/10 12:21:21;;;;;;;10.75;6.07;;;8.30;30.00;;;;;;5052191;28;20017;-75
2021/03/10 12:23:46;;;;;;;15.60;12.77;;;8.20;30.00;;;;;;5053489;28;20033;-74
2021/03/10 12:26:12;;;;;;;7.32;4.22;;;7.90;30.20;;;;;;5052254;28;20144;-74
2021/03/10 12:28:38;;;;;;;6.88;3.75;;;7.70;30.10;;;;;;5053478;28;20053;-78
2021/03/10 12:31:03;;;;;;;6.65;3.30;;;7.30;30.20;;;;;;5053061;28;20102;-73
2021/03/10 12:33:29;;;;;;;5.20;3.50;;;6.80;30.50;;;;;;5051617;28;20103;-73